Terminal Aerodrome Forecast
Issued by NWS

Home | Current Version | Previous Version | Graphics & Text | Print | Product List | Glossary On
Versions: 1 2 3 4 5 6 7 8 9 10 11 12 13 14 15 16 17 18 19 20 21 22
000
FTUS41 KCLE 231500 AAA
TAFFDY
TAF AMD
KFDY 231525Z 2315/2412 15010KT P6SM BKN008 OVC070
     FM231800 14005KT 4SM BR VCSH OVC006
     FM240600 06002KT 2SM -SHRA BR OVC006
     FM240900 06005KT 2SM -SHRA BR OVC004=

USA.gov is the U.S. government's official web portal to all federal, state and local government web resources and services.